sensor_id;sensor_type;location;lat;lon;timestamp;pressure;altitude;pressure_sealevel;temperature;humidity
48872;BME280;36154;51.674;7.824;2023-02-12T00:01:21;102948.75;;;20.18;48.98
48872;BME280;36154;51.674;7.824;2023-02-12T00:03:47;102952.22;;;20.17;48.82
48872;BME280;36154;51.674;7.824;2023-02-12T00:06:12;102942.72;;;20.17;48.78
48872;BME280;36154;51.674;7.824;2023-02-12T00:08:38;102947.91;;;20.17;48.72
48872;BME280;36154;51.674;7.824;2023-02-12T00:11:09;102949.63;;;20.18;48.52
48872;BME280;36154;51.674;7.824;2023-02-12T00:13:35;102947.91;;;20.17;48.38
48872;BME280;36154;51.674;7.824;2023-02-12T00:16:04;102947.03;;;20.18;48.03
48872;BME280;36154;51.674;7.824;2023-02-12T00:18:29;102939.25;;;20.18;48.10
48872;BME280;36154;51.674;7.824;2023-02-12T00:20:58;102944.44;;;20.18;48.30
48872;BME280;36154;51.674;7.824;2023-02-12T00:23:23;102943.56;;;20.18;48.35
48872;BME280;36154;51.674;7.824;2023-02-12T00:25:48;102939.25;;;20.18;48.09
48872;BME280;36154;51.674;7.824;2023-02-12T00:28:14;102933.22;;;20.18;47.89
48872;BME280;36154;51.674;7.824;2023-02-12T00:30:39;102929.78;;;20.19;47.87
48872;BME280;36154;51.674;7.824;2023-02-12T00:33:04;102927.19;;;20.17;48.01
48872;BME280;36154;51.674;7.824;2023-02-12T00:35:30;102928.03;;;20.18;47.81
48872;BME280;36154;51.674;7.824;2023-02-12T00:37:55;102923.72;;;20.18;47.83
48872;BME280;36154;51.674;7.824;2023-02-12T00:40:20;102920.28;;;20.19;47.58
48872;BME280;36154;51.674;7.824;2023-02-12T00:42:46;102927.22;;;20.20;47.65
48872;BME280;36154;51.674;7.824;2023-02-12T00:45:11;102915.13;;;20.19;47.63
48872;BME280;36154;51.674;7.824;2023-02-12T00:47:36;102925.47;;;20.19;47.69
48872;BME280;36154;51.674;7.824;2023-02-12T00:50:02;102925.47;;;20.19;47.62
48872;BME280;36154;51.674;7.824;2023-02-12T00:52:27;102935.84;;;20.19;47.48
48872;BME280;36154;51.674;7.824;2023-02-12T00:54:52;102925.47;;;20.19;47.46
48872;BME280;36154;51.674;7.824;2023-02-12T00:57:17;102918.56;;;20.20;47.40
48872;BME280;36154;51.674;7.824;2023-02-12T00:59:43;102922.03;;;20.20;47.50
48872;BME280;36154;51.674;7.824;2023-02-12T01:02:08;102922.03;;;20.20;47.45
48872;BME280;36154;51.674;7.824;2023-02-12T01:04:33;102924.63;;;20.20;47.45
48872;BME280;36154;51.674;7.824;2023-02-12T01:06:59;102923.75;;;20.21;47.39
48872;BME280;36154;51.674;7.824;2023-02-12T01:09:24;102934.13;;;20.21;47.40
48872;BME280;36154;51.674;7.824;2023-02-12T01:11:49;102932.41;;;20.20;47.34
48872;BME280;36154;51.674;7.824;2023-02-12T01:14:15;102934.13;;;20.21;47.22
48872;BME280;36154;51.674;7.824;2023-02-12T01:16:40;102940.19;;;20.22;47.32
48872;BME280;36154;51.674;7.824;2023-02-12T01:19:05;102941.03;;;20.22;47.18
48872;BME280;36154;51.674;7.824;2023-02-12T01:21:33;102933.25;;;20.19;47.27
48872;BME280;36154;51.674;7.824;2023-02-12T01:23:59;102937.59;;;20.22;47.10
48872;BME280;36154;51.674;7.824;2023-02-12T01:26:26;102928.94;;;20.21;47.24
48872;BME280;36154;51.674;7.824;2023-02-12T01:28:57;102942.78;;;20.22;47.06
48872;BME280;36154;51.674;7.824;2023-02-12T01:31:25;102940.19;;;20.22;47.07
48872;BME280;36154;51.674;7.824;2023-02-12T01:33:53;102941.88;;;20.21;47.08
48872;BME280;36154;51.674;7.824;2023-02-12T01:36:19;102938.44;;;20.22;47.00
48872;BME280;36154;51.674;7.824;2023-02-12T01:38:44;102936.72;;;20.21;47.11
48872;BME280;36154;51.674;7.824;2023-02-12T01:41:13;102945.38;;;20.23;46.96
48872;BME280;36154;51.674;7.824;2023-02-12T01:43:39;102940.19;;;20.22;46.96
48872;BME280;36154;51.674;7.824;2023-02-12T01:46:07;102941.03;;;20.22;47.04
48872;BME280;36154;51.674;7.824;2023-02-12T01:48:39;102943.63;;;20.22;46.78
48872;BME280;36154;51.674;7.824;2023-02-12T01:51:08;102930.69;;;20.22;47.01
48872;BME280;36154;51.674;7.824;2023-02-12T01:53:38;102940.19;;;20.23;47.04
48872;BME280;36154;51.674;7.824;2023-02-12T01:56:05;102928.09;;;20.22;47.02
48872;BME280;36154;51.674;7.824;2023-02-12T01:58:35;102929.84;;;20.23;47.00
48872;BME280;36154;51.674;7.824;2023-02-12T02:01:04;102930.69;;;20.22;46.99
48872;BME280;36154;51.674;7.824;2023-02-12T02:03:30;102931.53;;;20.21;46.93
48872;BME280;36154;51.674;7.824;2023-02-12T02:06:03;102925.50;;;20.22;47.00
48872;BME280;36154;51.674;7.824;2023-02-12T02:08:31;102929.84;;;20.23;46.99
48872;BME280;36154;51.674;7.824;2023-02-12T02:10:58;102924.66;;;20.22;47.15
48872;BME280;36154;51.674;7.824;2023-02-12T02:13:23;102934.13;;;20.21;46.93
48872;BME280;36154;51.674;7.824;2023-02-12T02:16:23;102922.03;;;20.20;47.24
48872;BME280;36154;51.674;7.824;2023-02-12T02:18:58;102920.28;;;20.19;47.26
48872;BME280;36154;51.674;7.824;2023-02-12T02:21:46;102923.72;;;20.18;47.24
48872;BME280;36154;51.674;7.824;2023-02-12T02:30:11;102942.69;;;20.14;47.31
48872;BME280;36154;51.674;7.824;2023-02-12T02:32:42;102934.91;;;20.14;47.22
48872;BME280;36154;51.674;7.824;2023-02-12T02:35:28;102925.41;;;20.13;47.44
48872;BME280;36154;51.674;7.824;2023-02-12T02:41:00;102920.22;;;20.11;47.25
48872;BME280;36154;51.674;7.824;2023-02-12T02:43:30;102909.88;;;20.10;47.37
48872;BME280;36154;51.674;7.824;2023-02-12T02:46:09;102913.31;;;20.09;47.19
48872;BME280;36154;51.674;7.824;2023-02-12T02:48:41;102910.72;;;20.09;47.37
48872;BME280;36154;51.674;7.824;2023-02-12T02:51:13;102902.94;;;20.09;47.16
48872;BME280;36154;51.674;7.824;2023-02-12T02:53:44;102897.78;;;20.09;47.30
48872;BME280;36154;51.674;7.824;2023-02-12T02:56:14;102913.31;;;20.09;47.18
48872;BME280;36154;51.674;7.824;2023-02-12T02:58:49;102899.50;;;20.07;47.02
48872;BME280;36154;51.674;7.824;2023-02-12T03:01:23;102911.56;;;20.08;47.30
48872;BME280;36154;51.674;7.824;2023-02-12T03:04:02;102908.97;;;20.08;47.25
48872;BME280;36154;51.674;7.824;2023-02-12T03:06:35;102907.25;;;20.07;47.08
48872;BME280;36154;51.674;7.824;2023-02-12T03:09:16;102907.25;;;20.07;47.16
48872;BME280;36154;51.674;7.824;2023-02-12T03:11:43;102913.25;;;20.06;47.20
48872;BME280;36154;51.674;7.824;2023-02-12T03:14:17;102902.91;;;20.06;47.20
48872;BME280;36154;51.674;7.824;2023-02-12T03:16:51;102901.19;;;20.05;47.07
48872;BME280;36154;51.674;7.824;2023-02-12T03:19:29;102895.13;;;20.04;47.03
48872;BME280;36154;51.674;7.824;2023-02-12T03:21:57;102900.31;;;20.04;47.11
48872;BME280;36154;51.674;7.824;2023-02-12T03:24:41;102895.13;;;20.04;47.26
48872;BME280;36154;51.674;7.824;2023-02-12T03:27:13;102900.28;;;20.03;47.12
48872;BME280;36154;51.674;7.824;2023-02-12T03:29:41;102902.88;;;20.03;46.92
48872;BME280;36154;51.674;7.824;2023-02-12T03:37:34;102891.66;;;20.02;46.92
48872;BME280;36154;51.674;7.824;2023-02-12T03:40:20;102897.69;;;20.01;46.97
48872;BME280;36154;51.674;7.824;2023-02-12T03:42:59;102904.59;;;20.01;47.08
48872;BME280;36154;51.674;7.824;2023-02-12T03:45:37;102909.78;;;20.01;47.09
48872;BME280;36154;51.674;7.824;2023-02-12T03:48:10;102920.13;;;20.01;46.90
48872;BME280;36154;51.674;7.824;2023-02-12T03:50:56;102908.91;;;19.99;46.86
48872;BME280;36154;51.674;7.824;2023-02-12T03:53:24;102913.19;;;20.00;47.01
48872;BME280;36154;51.674;7.824;2023-02-12T03:55:56;102921.84;;;19.99;46.88
48872;BME280;36154;51.674;7.824;2023-02-12T03:58:26;102915.81;;;19.98;47.16
48872;BME280;36154;51.674;7.824;2023-02-12T04:00:52;102926.16;;;19.98;46.95
48872;BME280;36154;51.674;7.824;2023-02-12T04:03:17;102925.25;;;19.98;47.00
48872;BME280;36154;51.674;7.824;2023-02-12T04:05:43;102939.94;;;19.99;47.02
48872;BME280;36154;51.674;7.824;2023-02-12T04:08:10;102932.19;;;19.99;46.88
48872;BME280;36154;51.674;7.824;2023-02-12T04:11:06;102929.56;;;19.97;46.86
48872;BME280;36154;51.674;7.824;2023-02-12T04:16:36;102937.31;;;19.96;47.02
48872;BME280;36154;51.674;7.824;2023-02-12T04:19:05;102932.16;;;19.96;46.83
48872;BME280;36154;51.674;7.824;2023-02-12T04:27:29;102942.47;;;19.94;46.76
48872;BME280;36154;51.674;7.824;2023-02-12T04:30:11;102945.91;;;19.93;46.99
48872;BME280;36154;51.674;7.824;2023-02-12T04:32:51;102945.91;;;19.93;46.81
48872;BME280;36154;51.674;7.824;2023-02-12T04:35:31;102948.50;;;19.93;47.00
48872;BME280;36154;51.674;7.824;2023-02-12T04:38:07;102956.25;;;19.93;46.90
48872;BME280;36154;51.674;7.824;2023-02-12T04:40:34;102958.84;;;19.93;46.81
48872;BME280;36154;51.674;7.824;2023-02-12T04:43:02;102965.75;;;19.92;46.99
48872;BME280;36154;51.674;7.824;2023-02-12T04:45:30;102963.16;;;19.92;46.80
48872;BME280;36154;51.674;7.824;2023-02-12T04:47:56;102963.16;;;19.92;46.71
48872;BME280;36154;51.674;7.824;2023-02-12T04:50:22;102956.28;;;19.91;46.98
48872;BME280;36154;51.674;7.824;2023-02-12T04:52:47;102956.28;;;19.91;46.86
48872;BME280;36154;51.674;7.824;2023-02-12T04:55:13;102960.56;;;19.91;46.90
48872;BME280;36154;51.674;7.824;2023-02-12T04:57:39;102963.13;;;19.91;46.88
48872;BME280;36154;51.674;7.824;2023-02-12T05:00:05;102957.97;;;19.91;46.75
48872;BME280;36154;51.674;7.824;2023-02-12T05:02:34;102964.00;;;19.90;46.88
48872;BME280;36154;51.674;7.824;2023-02-12T05:04:59;102970.03;;;19.90;46.84
48872;BME280;36154;51.674;7.824;2023-02-12T05:07:25;102970.03;;;19.90;46.74
48872;BME280;36154;51.674;7.824;2023-02-12T05:09:50;102970.03;;;19.90;46.85
48872;BME280;36154;51.674;7.824;2023-02-12T05:12:16;102970.91;;;19.91;46.84
48872;BME280;36154;51.674;7.824;2023-02-12T05:14:41;102963.13;;;19.89;46.60
48872;BME280;36154;51.674;7.824;2023-02-12T05:17:06;102961.41;;;19.88;46.77
48872;BME280;36154;51.674;7.824;2023-02-12T05:19:32;102972.63;;;19.89;46.79
48872;BME280;36154;51.674;7.824;2023-02-12T05:21:57;102966.56;;;19.88;46.86
48872;BME280;36154;51.674;7.824;2023-02-12T05:24:22;102964.00;;;19.88;46.79
48872;BME280;36154;51.674;7.824;2023-02-12T05:26:49;102960.50;;;19.88;46.62
48872;BME280;36154;51.674;7.824;2023-02-12T05:29:14;102963.97;;;19.87;46.58
48872;BME280;36154;51.674;7.824;2023-02-12T05:31:39;102963.06;;;19.86;46.65
48872;BME280;36154;51.674;7.824;2023-02-12T05:34:06;102974.31;;;19.87;46.64
48872;BME280;36154;51.674;7.824;2023-02-12T05:36:31;102973.44;;;19.86;46.61
48872;BME280;36154;51.674;7.824;2023-02-12T05:38:59;102973.44;;;19.86;46.64
48872;BME280;36154;51.674;7.824;2023-02-12T05:41:25;102970.84;;;19.86;46.77
48872;BME280;36154;51.674;7.824;2023-02-12T05:43:52;102976.88;;;19.85;46.72
48872;BME280;36154;51.674;7.824;2023-02-12T05:46:19;102973.44;;;19.86;46.71
48872;BME280;36154;51.674;7.824;2023-02-12T05:48:45;102974.31;;;19.87;46.66
48872;BME280;36154;51.674;7.824;2023-02-12T05:51:16;102972.56;;;19.84;46.68
48872;BME280;36154;51.674;7.824;2023-02-12T05:53:41;102976.88;;;19.85;46.48
48872;BME280;36154;51.674;7.824;2023-02-12T05:58:43;102976.88;;;19.85;46.51
48872;BME280;36154;51.674;7.824;2023-02-12T06:01:11;102976.88;;;19.85;46.45
48872;BME280;36154;51.674;7.824;2023-02-12T06:03:36;102982.06;;;19.85;46.60
48872;BME280;36154;51.674;7.824;2023-02-12T06:06:02;102975.13;;;19.84;46.54
48872;BME280;36154;51.674;7.824;2023-02-12T06:08:28;102975.13;;;19.84;46.49
48872;BME280;36154;51.674;7.824;2023-02-12T06:10:53;102975.13;;;19.84;46.59
48872;BME280;36154;51.674;7.824;2023-02-12T06:13:18;102976.03;;;19.85;46.70
48872;BME280;36154;51.674;7.824;2023-02-12T06:15:43;102974.28;;;19.84;46.58
48872;BME280;36154;51.674;7.824;2023-02-12T06:18:09;102976.84;;;19.82;46.52
48872;BME280;36154;51.674;7.824;2023-02-12T06:20:37;102980.31;;;19.84;46.53
48872;BME280;36154;51.674;7.824;2023-02-12T06:23:03;102978.59;;;19.83;46.57
48872;BME280;36154;51.674;7.824;2023-02-12T06:25:28;102978.59;;;19.83;46.76
48872;BME280;36154;51.674;7.824;2023-02-12T06:27:53;102977.69;;;19.83;46.58
48872;BME280;36154;51.674;7.824;2023-02-12T06:30:19;102976.84;;;19.82;46.45
48872;BME280;36154;51.674;7.824;2023-02-12T06:32:48;102984.59;;;19.82;46.51
48872;BME280;36154;51.674;7.824;2023-02-12T06:35:13;102988.06;;;19.83;46.59
48872;BME280;36154;51.674;7.824;2023-02-12T06:37:39;102996.69;;;19.82;46.87
48872;BME280;36154;51.674;7.824;2023-02-12T06:40:22;102987.19;;;19.81;46.39
48872;BME280;36154;51.674;7.824;2023-02-12T06:42:48;102996.69;;;19.82;46.64
48872;BME280;36154;51.674;7.824;2023-02-12T06:45:13;102994.06;;;19.80;46.50
48872;BME280;36154;51.674;7.824;2023-02-12T06:47:38;102995.78;;;19.81;46.54
48872;BME280;36154;51.674;7.824;2023-02-12T06:50:04;102988.91;;;19.80;46.37
48872;BME280;36154;51.674;7.824;2023-02-12T06:52:30;103000.94;;;19.80;46.43
48872;BME280;36154;51.674;7.824;2023-02-12T06:54:55;102999.25;;;19.80;46.38
48872;BME280;36154;51.674;7.824;2023-02-12T06:57:20;103004.44;;;19.80;46.46
48872;BME280;36154;51.674;7.824;2023-02-12T06:59:45;103000.09;;;19.79;46.49
48872;BME280;36154;51.674;7.824;2023-02-12T07:02:11;103004.44;;;19.80;46.36
48872;BME280;36154;51.674;7.824;2023-02-12T07:04:37;103004.44;;;19.80;46.45
48872;BME280;36154;51.674;7.824;2023-02-12T07:07:04;103007.84;;;19.79;46.43
48872;BME280;36154;51.674;7.824;2023-02-12T07:09:29;103009.59;;;19.80;46.51
48872;BME280;36154;51.674;7.824;2023-02-12T07:11:57;103014.78;;;19.80;46.44
48872;BME280;36154;51.674;7.824;2023-02-12T07:14:22;103018.19;;;19.79;46.94
48872;BME280;36154;51.674;7.824;2023-02-12T07:16:47;103018.19;;;19.79;46.51
48872;BME280;36154;51.674;7.824;2023-02-12T07:19:13;103019.06;;;19.78;46.37
48872;BME280;36154;51.674;7.824;2023-02-12T07:21:39;103017.34;;;19.79;46.40
48872;BME280;36154;51.674;7.824;2023-02-12T07:24:04;103023.38;;;19.79;46.36
48872;BME280;36154;51.674;7.824;2023-02-12T07:26:29;103027.69;;;19.79;46.39
48872;BME280;36154;51.674;7.824;2023-02-12T07:28:56;103030.28;;;19.80;46.37
48872;BME280;36154;51.674;7.824;2023-02-12T07:31:23;103038.88;;;19.79;46.21
48872;BME280;36154;51.674;7.824;2023-02-12T07:33:52;103033.72;;;19.79;46.30
48872;BME280;36154;51.674;7.824;2023-02-12T07:36:18;103038.88;;;19.79;46.30
48872;BME280;36154;51.674;7.824;2023-02-12T07:38:44;103039.75;;;19.80;46.49
48872;BME280;36154;51.674;7.824;2023-02-12T07:41:16;103035.44;;;19.79;46.16
48872;BME280;36154;51.674;7.824;2023-02-12T07:43:43;103039.75;;;19.78;46.17
48872;BME280;36154;51.674;7.824;2023-02-12T07:46:17;103040.63;;;19.79;46.25
48872;BME280;36154;51.674;7.824;2023-02-12T07:48:44;103041.53;;;19.82;46.28
48872;BME280;36154;51.674;7.824;2023-02-12T07:51:12;103047.56;;;19.84;46.19
48872;BME280;36154;51.674;7.824;2023-02-12T07:53:38;103049.38;;;19.88;46.11
48872;BME280;36154;51.674;7.824;2023-02-12T07:56:24;103051.13;;;19.92;46.39
48872;BME280;36154;51.674;7.824;2023-02-12T07:58:54;103058.97;;;19.97;46.27
48872;BME280;36154;51.674;7.824;2023-02-12T08:01:23;103065.88;;;20.00;46.12
48872;BME280;36154;51.674;7.824;2023-02-12T08:03:49;103058.16;;;20.03;46.32
48872;BME280;36154;51.674;7.824;2023-02-12T08:06:20;103067.72;;;20.07;46.16
48872;BME280;36154;51.674;7.824;2023-02-12T08:08:46;103070.34;;;20.11;46.24
48872;BME280;36154;51.674;7.824;2023-02-12T08:11:13;103072.97;;;20.15;46.07
48872;BME280;36154;51.674;7.824;2023-02-12T08:13:39;103068.69;;;20.18;46.59
48872;BME280;36154;51.674;7.824;2023-02-12T08:16:08;103073.06;;;20.21;46.04
48872;BME280;36154;51.674;7.824;2023-02-12T08:18:34;103074.81;;;20.23;45.98
48872;BME280;36154;51.674;7.824;2023-02-12T08:21:01;103073.94;;;20.24;45.92
48872;BME280;36154;51.674;7.824;2023-02-12T08:23:27;103079.16;;;20.27;45.96
48872;BME280;36154;51.674;7.824;2023-02-12T08:25:52;103085.22;;;20.29;46.08
48872;BME280;36154;51.674;7.824;2023-02-12T08:28:17;103076.63;;;20.30;45.90
48872;BME280;36154;51.674;7.824;2023-02-12T08:30:42;103086.09;;;20.31;45.96
48872;BME280;36154;51.674;7.824;2023-02-12T08:33:08;103085.25;;;20.31;45.60
48872;BME280;36154;51.674;7.824;2023-02-12T08:35:33;103080.91;;;20.31;45.87
48872;BME280;36154;51.674;7.824;2023-02-12T08:37:58;103082.66;;;20.33;45.62
48872;BME280;36154;51.674;7.824;2023-02-12T08:40:24;103080.94;;;20.33;45.64
48872;BME280;36154;51.674;7.824;2023-02-12T08:42:49;103077.50;;;20.33;45.70
48872;BME280;36154;51.674;7.824;2023-02-12T08:45:16;103080.09;;;20.33;45.69
48872;BME280;36154;51.674;7.824;2023-02-12T08:47:41;103084.44;;;20.34;45.54
48872;BME280;36154;51.674;7.824;2023-02-12T08:50:07;103082.66;;;20.33;45.51
48872;BME280;36154;51.674;7.824;2023-02-12T08:52:34;103087.00;;;20.34;45.39
48872;BME280;36154;51.674;7.824;2023-02-12T08:54:59;103089.59;;;20.34;45.46
48872;BME280;36154;51.674;7.824;2023-02-12T08:57:24;103088.72;;;20.33;45.37
48872;BME280;36154;51.674;7.824;2023-02-12T08:59:50;103094.78;;;20.34;45.55
48872;BME280;36154;51.674;7.824;2023-02-12T09:02:15;103092.19;;;20.34;45.50
48872;BME280;36154;51.674;7.824;2023-02-12T09:04:40;103091.31;;;20.35;45.75
48872;BME280;36154;51.674;7.824;2023-02-12T09:07:05;103093.06;;;20.36;46.12
48872;BME280;36154;51.674;7.824;2023-02-12T09:09:31;103099.13;;;20.38;46.17
48872;BME280;36154;51.674;7.824;2023-02-12T09:11:56;103099.16;;;20.39;46.13
48872;BME280;36154;51.674;7.824;2023-02-12T09:14:21;103096.59;;;20.41;46.13
48872;BME280;36154;51.674;7.824;2023-02-12T09:16:50;103105.22;;;20.43;46.15
48872;BME280;36154;51.674;7.824;2023-02-12T09:19:17;103107.84;;;20.44;46.36
48872;BME280;36154;51.674;7.824;2023-02-12T09:21:42;103112.22;;;20.47;46.84
48872;BME280;36154;51.674;7.824;2023-02-12T09:24:08;103110.50;;;20.49;46.41
48872;BME280;36154;51.674;7.824;2023-02-12T09:26:33;103115.69;;;20.49;46.27
48872;BME280;36154;51.674;7.824;2023-02-12T09:29:00;103106.19;;;20.48;46.25
48872;BME280;36154;51.674;7.824;2023-02-12T09:31:28;103114.84;;;20.48;46.14
48872;BME280;36154;51.674;7.824;2023-02-12T09:33:59;103115.69;;;20.49;46.10
48872;BME280;36154;51.674;7.824;2023-02-12T09:36:25;103113.09;;;20.49;46.07
48872;BME280;36154;51.674;7.824;2023-02-12T09:38:50;103122.59;;;20.50;46.02
48872;BME280;36154;51.674;7.824;2023-02-12T09:44:30;103117.41;;;20.50;45.89
48872;BME280;36154;51.674;7.824;2023-02-12T09:46:58;103122.59;;;20.50;45.91
48872;BME280;36154;51.674;7.824;2023-02-12T09:52:05;103125.19;;;20.48;46.11
48872;BME280;36154;51.674;7.824;2023-02-12T09:54:40;103125.19;;;20.47;46.09
48872;BME280;36154;51.674;7.824;2023-02-12T09:57:15;103120.81;;;20.46;46.06
48872;BME280;36154;51.674;7.824;2023-02-12T09:59:45;103125.13;;;20.45;46.28
48872;BME280;36154;51.674;7.824;2023-02-12T10:02:14;103127.69;;;20.44;46.08
48872;BME280;36154;51.674;7.824;2023-02-12T10:04:41;103127.69;;;20.44;45.91
48872;BME280;36154;51.674;7.824;2023-02-12T10:18:15;103129.31;;;20.36;46.50
48872;BME280;36154;51.674;7.824;2023-02-12T10:26:37;103132.72;;;20.31;46.07
48872;BME280;36154;51.674;7.824;2023-02-12T10:29:12;103125.81;;;20.30;46.11
48872;BME280;36154;51.674;7.824;2023-02-12T10:31:42;103133.56;;;20.29;46.12
48872;BME280;36154;51.674;7.824;2023-02-12T10:34:21;103135.28;;;20.28;46.18
48872;BME280;36154;51.674;7.824;2023-02-12T10:36:48;103127.53;;;20.28;46.18
48872;BME280;36154;51.674;7.824;2023-02-12T10:39:26;103125.75;;;20.27;46.26
48872;BME280;36154;51.674;7.824;2023-02-12T10:42:15;103122.31;;;20.27;46.10
48872;BME280;36154;51.674;7.824;2023-02-12T10:44:42;103117.97;;;20.26;46.31
48872;BME280;36154;51.674;7.824;2023-02-12T10:47:17;103124.03;;;20.26;46.05
48872;BME280;36154;51.674;7.824;2023-02-12T10:49:43;103115.38;;;20.24;46.13
48872;BME280;36154;51.674;7.824;2023-02-12T10:52:42;103105.88;;;20.23;46.09
48872;BME280;36154;51.674;7.824;2023-02-12T10:55:28;103109.31;;;20.22;45.95
48872;BME280;36154;51.674;7.824;2023-02-12T10:57:54;103111.91;;;20.22;46.00
48872;BME280;36154;51.674;7.824;2023-02-12T11:00:30;103112.75;;;20.21;46.05
48872;BME280;36154;51.674;7.824;2023-02-12T11:05:32;103110.16;;;20.21;46.01
48872;BME280;36154;51.674;7.824;2023-02-12T11:07:57;103104.97;;;20.21;46.27
48872;BME280;36154;51.674;7.824;2023-02-12T11:10:37;103111.03;;;20.22;45.92
48872;BME280;36154;51.674;7.824;2023-02-12T11:13:03;103099.78;;;20.21;45.96
48872;BME280;36154;51.674;7.824;2023-02-12T11:15:36;103098.06;;;20.20;45.90
48872;BME280;36154;51.674;7.824;2023-02-12T11:18:07;103102.38;;;20.21;45.96
48872;BME280;36154;51.674;7.824;2023-02-12T11:20:39;103100.69;;;20.22;45.97
48872;BME280;36154;51.674;7.824;2023-02-12T11:23:22;103098.97;;;20.22;45.85
48872;BME280;36154;51.674;7.824;2023-02-12T11:26:01;103101.53;;;20.22;45.84
48872;BME280;36154;51.674;7.824;2023-02-12T11:28:28;103095.50;;;20.22;45.68
48872;BME280;36154;51.674;7.824;2023-02-12T11:31:02;103101.53;;;20.22;45.83
48872;BME280;36154;51.674;7.824;2023-02-12T11:33:33;103096.38;;;20.22;45.78
48872;BME280;36154;51.674;7.824;2023-02-12T11:36:22;103096.38;;;20.22;46.01
48872;BME280;36154;51.674;7.824;2023-02-12T11:38:52;103086.00;;;20.22;45.76
48872;BME280;36154;51.674;7.824;2023-02-12T11:41:22;103087.75;;;20.22;45.61
48872;BME280;36154;51.674;7.824;2023-02-12T11:43:48;103080.84;;;20.22;46.13
48872;BME280;36154;51.674;7.824;2023-02-12T11:46:24;103083.44;;;20.24;46.00
48872;BME280;36154;51.674;7.824;2023-02-12T11:48:52;103084.31;;;20.24;45.87
48872;BME280;36154;51.674;7.824;2023-02-12T11:51:23;103086.03;;;20.24;45.99
48872;BME280;36154;51.674;7.824;2023-02-12T11:53:51;103072.22;;;20.23;45.86
48872;BME280;36154;51.674;7.824;2023-02-12T11:56:19;103075.69;;;20.25;45.97
48872;BME280;36154;51.674;7.824;2023-02-12T11:58:49;103069.66;;;20.26;45.74
48872;BME280;36154;51.674;7.824;2023-02-12T12:01:23;103071.38;;;20.26;45.79
48872;BME280;36154;51.674;7.824;2023-02-12T12:04:11;103070.53;;;20.27;45.88
48872;BME280;36154;51.674;7.824;2023-02-12T12:06:50;103069.66;;;20.26;45.82
48872;BME280;36154;51.674;7.824;2023-02-12T12:09:49;103067.06;;;20.28;46.11
48872;BME280;36154;51.674;7.824;2023-02-12T12:12:35;103065.38;;;20.28;46.11
48872;BME280;36154;51.674;7.824;2023-02-12T12:15:16;103060.22;;;20.28;46.38
48872;BME280;36154;51.674;7.824;2023-02-12T12:21:00;103053.28;;;20.27;46.45
48872;BME280;36154;51.674;7.824;2023-02-12T12:23:36;103050.69;;;20.27;46.53
48872;BME280;36154;51.674;7.824;2023-02-12T12:26:29;103055.03;;;20.28;46.52
48872;BME280;36154;51.674;7.824;2023-02-12T12:29:06;103053.28;;;20.27;46.51
48872;BME280;36154;51.674;7.824;2023-02-12T12:31:38;103055.88;;;20.29;46.59
48872;BME280;36154;51.674;7.824;2023-02-12T12:34:15;103050.72;;;20.29;46.77
48872;BME280;36154;51.674;7.824;2023-02-12T12:45:41;103038.63;;;20.29;46.65
48872;BME280;36154;51.674;7.824;2023-02-12T12:51:02;103030.00;;;20.29;46.78
48872;BME280;36154;51.674;7.824;2023-02-12T13:07:23;103017.94;;;20.31;47.47
48872;BME280;36154;51.674;7.824;2023-02-12T13:15:26;103009.28;;;20.29;47.53
48872;BME280;36154;51.674;7.824;2023-02-12T13:18:16;103005.81;;;20.27;47.58
48872;BME280;36154;51.674;7.824;2023-02-12T13:23:23;102993.69;;;20.24;47.30
48872;BME280;36154;51.674;7.824;2023-02-12T13:26:08;102994.53;;;20.20;43.66
48872;BME280;36154;51.674;7.824;2023-02-12T13:28:45;103005.59;;;20.07;41.72
48872;BME280;36154;51.674;7.824;2023-02-12T13:31:19;102995.91;;;19.90;40.35
48872;BME280;36154;51.674;7.824;2023-02-12T13:33:50;102992.25;;;19.73;39.88
48872;BME280;36154;51.674;7.824;2023-02-12T13:36:16;102990.25;;;19.53;40.00
48872;BME280;36154;51.674;7.824;2023-02-12T13:38:47;102991.75;;;19.37;39.14
48872;BME280;36154;51.674;7.824;2023-02-12T13:41:16;102991.47;;;19.17;39.46
48872;BME280;36154;51.674;7.824;2023-02-12T13:43:56;102998.16;;;19.03;39.10
48872;BME280;36154;51.674;7.824;2023-02-12T13:46:33;102993.63;;;18.90;39.31
48872;BME280;36154;51.674;7.824;2023-02-12T13:52:26;102994.41;;;18.86;40.78
48872;BME280;36154;51.674;7.824;2023-02-12T13:55:27;102994.56;;;18.95;42.24
48872;BME280;36154;51.674;7.824;2023-02-12T14:01:07;102980.25;;;19.17;45.14
48872;BME280;36154;51.674;7.824;2023-02-12T14:03:35;102993.38;;;19.28;45.34
48872;BME280;36154;51.674;7.824;2023-02-12T14:06:17;102990.09;;;19.39;45.65
48872;BME280;36154;51.674;7.824;2023-02-12T14:08:51;102981.63;;;19.51;45.90
48872;BME280;36154;51.674;7.824;2023-02-12T14:11:20;102988.63;;;19.62;45.76
48872;BME280;36154;51.674;7.824;2023-02-12T14:13:54;102999.13;;;19.71;45.54
48872;BME280;36154;51.674;7.824;2023-02-12T14:21:39;102994.13;;;19.86;45.20
48872;BME280;36154;51.674;7.824;2023-02-12T14:24:39;102988.19;;;19.93;45.21
48872;BME280;36154;51.674;7.824;2023-02-12T14:27:21;102996.00;;;20.00;45.16
48872;BME280;36154;51.674;7.824;2023-02-12T14:40:40;102996.22;;;20.18;44.75
48872;BME280;36154;51.674;7.824;2023-02-12T14:45:55;102997.97;;;20.21;44.80
48872;BME280;36154;51.674;7.824;2023-02-12T14:51:33;102985.88;;;20.21;44.73
48872;BME280;36154;51.674;7.824;2023-02-12T14:54:01;102991.97;;;20.23;44.81
48872;BME280;36154;51.674;7.824;2023-02-12T14:56:44;102991.09;;;20.24;44.85
48872;BME280;36154;51.674;7.824;2023-02-12T14:59:15;102994.56;;;20.26;44.62
48872;BME280;36154;51.674;7.824;2023-02-12T15:01:42;102991.97;;;20.26;44.67